sensor_id;sensor_type;location;lat;lon;timestamp;P1;durP1;ratioP1;P2;durP2;ratioP2
24681;SDS011;12802;53.390;-2.328;2023-12-20T00:01:39;33.55;;;5.50;;
24681;SDS011;12802;53.390;-2.328;2023-12-20T00:04:05;27.30;;;4.80;;
24681;SDS011;12802;53.390;-2.328;2023-12-20T00:06:32;33.72;;;5.60;;
24681;SDS011;12802;53.390;-2.328;2023-12-20T00:08:58;31.30;;;5.55;;
24681;SDS011;12802;53.390;-2.328;2023-12-20T00:11:24;29.95;;;5.38;;
24681;SDS011;12802;53.390;-2.328;2023-12-20T00:13:50;26.25;;;4.85;;
24681;SDS011;12802;53.390;-2.328;2023-12-20T00:16:16;35.45;;;5.13;;
24681;SDS011;12802;53.390;-2.328;2023-12-20T00:18:43;24.02;;;5.05;;
24681;SDS011;12802;53.390;-2.328;2023-12-20T00:21:09;24.50;;;4.22;;
24681;SDS011;12802;53.390;-2.328;2023-12-20T00:23:35;27.00;;;4.25;;
24681;SDS011;12802;53.390;-2.328;2023-12-20T00:26:01;27.05;;;4.85;;
24681;SDS011;12802;53.390;-2.328;2023-12-20T00:28:27;32.25;;;4.00;;
24681;SDS011;12802;53.390;-2.328;2023-12-20T00:30:53;29.40;;;4.93;;
24681;SDS011;12802;53.390;-2.328;2023-12-20T00:33:20;27.75;;;5.45;;
24681;SDS011;12802;53.390;-2.328;2023-12-20T00:35:46;23.85;;;4.47;;
24681;SDS011;12802;53.390;-2.328;2023-12-20T00:38:12;27.25;;;4.88;;
24681;SDS011;12802;53.390;-2.328;2023-12-20T00:40:38;24.13;;;4.85;;
24681;SDS011;12802;53.390;-2.328;2023-12-20T00:43:04;26.70;;;5.35;;
24681;SDS011;12802;53.390;-2.328;2023-12-20T00:45:30;24.55;;;5.05;;
24681;SDS011;12802;53.390;-2.328;2023-12-20T00:47:56;24.90;;;4.75;;
24681;SDS011;12802;53.390;-2.328;2023-12-20T00:50:24;39.60;;;5.65;;
24681;SDS011;12802;53.390;-2.328;2023-12-20T00:52:50;24.15;;;4.47;;
24681;SDS011;12802;53.390;-2.328;2023-12-20T00:55:16;25.65;;;4.70;;
24681;SDS011;12802;53.390;-2.328;2023-12-20T00:57:42;33.40;;;5.25;;
24681;SDS011;12802;53.390;-2.328;2023-12-20T01:00:08;37.35;;;4.85;;
24681;SDS011;12802;53.390;-2.328;2023-12-20T01:02:35;24.00;;;4.35;;
24681;SDS011;12802;53.390;-2.328;2023-12-20T01:05:01;25.83;;;4.68;;
24681;SDS011;12802;53.390;-2.328;2023-12-20T01:07:28;32.92;;;5.82;;
24681;SDS011;12802;53.390;-2.328;2023-12-20T01:09:54;34.05;;;6.13;;
24681;SDS011;12802;53.390;-2.328;2023-12-20T01:12:20;29.33;;;5.30;;
24681;SDS011;12802;53.390;-2.328;2023-12-20T01:14:46;35.50;;;5.93;;
24681;SDS011;12802;53.390;-2.328;2023-12-20T01:17:12;29.08;;;4.85;;
24681;SDS011;12802;53.390;-2.328;2023-12-20T01:19:39;29.30;;;5.28;;
24681;SDS011;12802;53.390;-2.328;2023-12-20T01:22:05;29.40;;;5.10;;
24681;SDS011;12802;53.390;-2.328;2023-12-20T01:24:31;32.67;;;5.35;;
24681;SDS011;12802;53.390;-2.328;2023-12-20T01:26:57;27.23;;;4.65;;
24681;SDS011;12802;53.390;-2.328;2023-12-20T01:29:23;31.23;;;6.03;;
24681;SDS011;12802;53.390;-2.328;2023-12-20T01:31:50;30.25;;;5.57;;
24681;SDS011;12802;53.390;-2.328;2023-12-20T01:34:16;23.15;;;5.20;;
24681;SDS011;12802;53.390;-2.328;2023-12-20T01:36:42;34.33;;;5.82;;
24681;SDS011;12802;53.390;-2.328;2023-12-20T01:39:08;23.83;;;4.55;;
24681;SDS011;12802;53.390;-2.328;2023-12-20T01:41:34;29.35;;;4.78;;
24681;SDS011;12802;53.390;-2.328;2023-12-20T01:44:01;26.15;;;5.30;;
24681;SDS011;12802;53.390;-2.328;2023-12-20T01:46:27;24.08;;;4.93;;
24681;SDS011;12802;53.390;-2.328;2023-12-20T01:48:53;27.80;;;4.93;;
24681;SDS011;12802;53.390;-2.328;2023-12-20T01:51:19;26.90;;;5.45;;
24681;SDS011;12802;53.390;-2.328;2023-12-20T01:53:46;27.08;;;4.15;;
24681;SDS011;12802;53.390;-2.328;2023-12-20T01:56:12;32.13;;;4.93;;
24681;SDS011;12802;53.390;-2.328;2023-12-20T01:58:42;38.05;;;6.00;;
24681;SDS011;12802;53.390;-2.328;2023-12-20T02:01:09;26.40;;;4.80;;
24681;SDS011;12802;53.390;-2.328;2023-12-20T02:03:35;23.38;;;4.15;;
24681;SDS011;12802;53.390;-2.328;2023-12-20T02:06:02;31.42;;;5.65;;
24681;SDS011;12802;53.390;-2.328;2023-12-20T02:08:29;30.70;;;5.38;;
24681;SDS011;12802;53.390;-2.328;2023-12-20T02:10:55;34.25;;;6.03;;
24681;SDS011;12802;53.390;-2.328;2023-12-20T02:13:21;32.53;;;5.13;;
24681;SDS011;12802;53.390;-2.328;2023-12-20T02:15:47;29.58;;;5.43;;
24681;SDS011;12802;53.390;-2.328;2023-12-20T02:18:13;26.15;;;4.25;;
24681;SDS011;12802;53.390;-2.328;2023-12-20T02:20:41;32.97;;;5.72;;
24681;SDS011;12802;53.390;-2.328;2023-12-20T02:23:08;29.10;;;5.18;;
24681;SDS011;12802;53.390;-2.328;2023-12-20T02:25:34;27.90;;;5.40;;
24681;SDS011;12802;53.390;-2.328;2023-12-20T02:28:00;31.10;;;6.13;;
24681;SDS011;12802;53.390;-2.328;2023-12-20T02:30:27;26.08;;;4.78;;
24681;SDS011;12802;53.390;-2.328;2023-12-20T02:32:53;31.60;;;5.88;;
24681;SDS011;12802;53.390;-2.328;2023-12-20T02:35:19;27.40;;;5.28;;
24681;SDS011;12802;53.390;-2.328;2023-12-20T02:37:45;32.22;;;5.32;;
24681;SDS011;12802;53.390;-2.328;2023-12-20T02:40:12;23.77;;;5.18;;
24681;SDS011;12802;53.390;-2.328;2023-12-20T02:42:38;33.45;;;5.20;;
24681;SDS011;12802;53.390;-2.328;2023-12-20T02:45:04;35.22;;;5.45;;
24681;SDS011;12802;53.390;-2.328;2023-12-20T02:47:30;27.35;;;5.00;;
24681;SDS011;12802;53.390;-2.328;2023-12-20T02:49:56;30.13;;;4.90;;
24681;SDS011;12802;53.390;-2.328;2023-12-20T02:52:23;31.00;;;5.55;;
24681;SDS011;12802;53.390;-2.328;2023-12-20T02:54:49;22.15;;;4.78;;
24681;SDS011;12802;53.390;-2.328;2023-12-20T02:57:16;31.85;;;4.88;;
24681;SDS011;12802;53.390;-2.328;2023-12-20T02:59:42;33.97;;;5.57;;
24681;SDS011;12802;53.390;-2.328;2023-12-20T03:02:08;22.83;;;5.10;;
24681;SDS011;12802;53.390;-2.328;2023-12-20T03:04:34;23.77;;;5.35;;
24681;SDS011;12802;53.390;-2.328;2023-12-20T03:07:00;32.05;;;5.47;;
24681;SDS011;12802;53.390;-2.328;2023-12-20T03:09:27;32.42;;;5.00;;
24681;SDS011;12802;53.390;-2.328;2023-12-20T03:11:53;29.73;;;4.88;;
24681;SDS011;12802;53.390;-2.328;2023-12-20T03:14:19;27.17;;;5.25;;
24681;SDS011;12802;53.390;-2.328;2023-12-20T03:16:51;30.38;;;4.88;;
24681;SDS011;12802;53.390;-2.328;2023-12-20T03:19:17;33.53;;;5.25;;
24681;SDS011;12802;53.390;-2.328;2023-12-20T03:21:44;41.30;;;6.35;;
24681;SDS011;12802;53.390;-2.328;2023-12-20T03:24:10;31.83;;;5.07;;
24681;SDS011;12802;53.390;-2.328;2023-12-20T03:26:37;28.05;;;5.13;;
24681;SDS011;12802;53.390;-2.328;2023-12-20T03:29:03;31.40;;;4.63;;
24681;SDS011;12802;53.390;-2.328;2023-12-20T03:31:29;24.27;;;4.43;;
24681;SDS011;12802;53.390;-2.328;2023-12-20T03:33:55;20.63;;;4.20;;
24681;SDS011;12802;53.390;-2.328;2023-12-20T03:36:21;30.08;;;4.65;;
24681;SDS011;12802;53.390;-2.328;2023-12-20T03:38:47;28.35;;;5.03;;
24681;SDS011;12802;53.390;-2.328;2023-12-20T03:41:13;31.08;;;4.57;;
24681;SDS011;12802;53.390;-2.328;2023-12-20T03:43:40;27.42;;;4.68;;
24681;SDS011;12802;53.390;-2.328;2023-12-20T03:46:07;24.48;;;4.50;;
24681;SDS011;12802;53.390;-2.328;2023-12-20T03:48:33;35.80;;;5.78;;
24681;SDS011;12802;53.390;-2.328;2023-12-20T03:51:00;21.85;;;4.93;;
24681;SDS011;12802;53.390;-2.328;2023-12-20T03:53:26;26.17;;;4.20;;
24681;SDS011;12802;53.390;-2.328;2023-12-20T03:55:52;23.77;;;4.28;;
24681;SDS011;12802;53.390;-2.328;2023-12-20T03:58:18;26.38;;;5.15;;
24681;SDS011;12802;53.390;-2.328;2023-12-20T04:00:44;26.42;;;4.82;;
24681;SDS011;12802;53.390;-2.328;2023-12-20T04:03:10;28.92;;;4.90;;
24681;SDS011;12802;53.390;-2.328;2023-12-20T04:05:40;24.92;;;4.35;;
24681;SDS011;12802;53.390;-2.328;2023-12-20T04:08:06;27.00;;;5.05;;
24681;SDS011;12802;53.390;-2.328;2023-12-20T04:10:33;26.67;;;5.53;;
24681;SDS011;12802;53.390;-2.328;2023-12-20T04:12:59;24.90;;;4.60;;
24681;SDS011;12802;53.390;-2.328;2023-12-20T04:15:25;31.45;;;4.97;;
24681;SDS011;12802;53.390;-2.328;2023-12-20T04:17:51;30.40;;;4.82;;
24681;SDS011;12802;53.390;-2.328;2023-12-20T04:20:17;25.65;;;4.40;;
24681;SDS011;12802;53.390;-2.328;2023-12-20T04:22:43;25.25;;;4.85;;
24681;SDS011;12802;53.390;-2.328;2023-12-20T04:25:10;35.28;;;4.68;;
24681;SDS011;12802;53.390;-2.328;2023-12-20T04:27:36;29.20;;;4.78;;
24681;SDS011;12802;53.390;-2.328;2023-12-20T04:30:02;25.60;;;4.72;;
24681;SDS011;12802;53.390;-2.328;2023-12-20T04:32:28;22.67;;;4.47;;
24681;SDS011;12802;53.390;-2.328;2023-12-20T04:34:55;41.33;;;5.20;;
24681;SDS011;12802;53.390;-2.328;2023-12-20T04:37:21;30.85;;;5.10;;
24681;SDS011;12802;53.390;-2.328;2023-12-20T04:39:47;29.02;;;4.60;;
24681;SDS011;12802;53.390;-2.328;2023-12-20T04:42:13;28.45;;;4.57;;
24681;SDS011;12802;53.390;-2.328;2023-12-20T04:44:39;30.50;;;4.72;;
24681;SDS011;12802;53.390;-2.328;2023-12-20T04:47:06;24.73;;;4.55;;
24681;SDS011;12802;53.390;-2.328;2023-12-20T04:49:32;32.67;;;5.68;;
24681;SDS011;12802;53.390;-2.328;2023-12-20T04:51:58;31.50;;;5.57;;
24681;SDS011;12802;53.390;-2.328;2023-12-20T04:54:24;24.92;;;5.15;;
24681;SDS011;12802;53.390;-2.328;2023-12-20T04:56:50;31.63;;;5.03;;
24681;SDS011;12802;53.390;-2.328;2023-12-20T04:59:16;32.40;;;4.85;;
24681;SDS011;12802;53.390;-2.328;2023-12-20T05:01:42;29.83;;;5.00;;
24681;SDS011;12802;53.390;-2.328;2023-12-20T05:04:09;20.80;;;4.60;;
24681;SDS011;12802;53.390;-2.328;2023-12-20T05:06:35;24.58;;;4.20;;
24681;SDS011;12802;53.390;-2.328;2023-12-20T05:09:01;26.15;;;4.28;;
24681;SDS011;12802;53.390;-2.328;2023-12-20T05:11:27;24.35;;;5.30;;
24681;SDS011;12802;53.390;-2.328;2023-12-20T05:13:53;27.58;;;4.60;;
24681;SDS011;12802;53.390;-2.328;2023-12-20T05:16:19;26.02;;;4.00;;
24681;SDS011;12802;53.390;-2.328;2023-12-20T05:18:47;23.25;;;4.00;;
24681;SDS011;12802;53.390;-2.328;2023-12-20T05:21:15;23.08;;;3.70;;
24681;SDS011;12802;53.390;-2.328;2023-12-20T05:23:41;31.60;;;4.78;;
24681;SDS011;12802;53.390;-2.328;2023-12-20T05:26:07;25.95;;;4.68;;
24681;SDS011;12802;53.390;-2.328;2023-12-20T05:28:33;16.90;;;3.55;;
24681;SDS011;12802;53.390;-2.328;2023-12-20T05:30:59;20.15;;;4.15;;
24681;SDS011;12802;53.390;-2.328;2023-12-20T05:33:26;22.08;;;4.07;;
24681;SDS011;12802;53.390;-2.328;2023-12-20T05:35:52;24.85;;;4.28;;
24681;SDS011;12802;53.390;-2.328;2023-12-20T05:38:18;19.27;;;4.25;;
24681;SDS011;12802;53.390;-2.328;2023-12-20T05:40:44;21.60;;;4.00;;
24681;SDS011;12802;53.390;-2.328;2023-12-20T05:43:10;27.13;;;4.45;;
24681;SDS011;12802;53.390;-2.328;2023-12-20T05:45:36;23.70;;;4.50;;
24681;SDS011;12802;53.390;-2.328;2023-12-20T05:48:03;26.50;;;4.22;;
24681;SDS011;12802;53.390;-2.328;2023-12-20T05:50:29;27.52;;;5.05;;
24681;SDS011;12802;53.390;-2.328;2023-12-20T05:52:55;26.40;;;4.35;;
24681;SDS011;12802;53.390;-2.328;2023-12-20T05:55:21;23.73;;;3.90;;
24681;SDS011;12802;53.390;-2.328;2023-12-20T05:57:47;29.02;;;3.92;;
24681;SDS011;12802;53.390;-2.328;2023-12-20T06:00:13;27.15;;;4.13;;
24681;SDS011;12802;53.390;-2.328;2023-12-20T06:02:40;26.90;;;5.13;;
24681;SDS011;12802;53.390;-2.328;2023-12-20T06:05:07;27.73;;;4.18;;
24681;SDS011;12802;53.390;-2.328;2023-12-20T06:07:33;24.02;;;4.18;;
24681;SDS011;12802;53.390;-2.328;2023-12-20T06:09:59;24.83;;;4.72;;
24681;SDS011;12802;53.390;-2.328;2023-12-20T06:12:25;27.05;;;4.85;;
24681;SDS011;12802;53.390;-2.328;2023-12-20T06:14:53;25.65;;;4.43;;
24681;SDS011;12802;53.390;-2.328;2023-12-20T06:17:20;27.45;;;4.32;;
24681;SDS011;12802;53.390;-2.328;2023-12-20T06:19:46;29.63;;;4.82;;
24681;SDS011;12802;53.390;-2.328;2023-12-20T06:22:13;25.83;;;4.80;;
24681;SDS011;12802;53.390;-2.328;2023-12-20T06:24:39;27.58;;;4.82;;
24681;SDS011;12802;53.390;-2.328;2023-12-20T06:27:05;25.05;;;3.83;;
24681;SDS011;12802;53.390;-2.328;2023-12-20T06:29:32;24.02;;;4.10;;
24681;SDS011;12802;53.390;-2.328;2023-12-20T06:31:59;29.08;;;4.00;;
24681;SDS011;12802;53.390;-2.328;2023-12-20T06:34:26;18.10;;;3.92;;
24681;SDS011;12802;53.390;-2.328;2023-12-20T06:36:52;21.48;;;3.70;;
24681;SDS011;12802;53.390;-2.328;2023-12-20T06:39:18;22.25;;;4.00;;
24681;SDS011;12802;53.390;-2.328;2023-12-20T06:41:44;18.60;;;3.70;;
24681;SDS011;12802;53.390;-2.328;2023-12-20T06:44:10;25.30;;;3.83;;
24681;SDS011;12802;53.390;-2.328;2023-12-20T06:46:36;20.83;;;3.67;;
24681;SDS011;12802;53.390;-2.328;2023-12-20T06:49:02;26.83;;;4.60;;
24681;SDS011;12802;53.390;-2.328;2023-12-20T06:51:28;17.88;;;3.30;;
24681;SDS011;12802;53.390;-2.328;2023-12-20T06:53:56;25.23;;;3.63;;
24681;SDS011;12802;53.390;-2.328;2023-12-20T06:56:22;23.20;;;4.05;;
24681;SDS011;12802;53.390;-2.328;2023-12-20T06:58:48;25.80;;;3.10;;
24681;SDS011;12802;53.390;-2.328;2023-12-20T07:01:14;22.05;;;3.40;;
24681;SDS011;12802;53.390;-2.328;2023-12-20T07:03:41;18.30;;;3.45;;
24681;SDS011;12802;53.390;-2.328;2023-12-20T07:06:07;29.00;;;4.38;;
24681;SDS011;12802;53.390;-2.328;2023-12-20T07:08:33;19.33;;;4.43;;
24681;SDS011;12802;53.390;-2.328;2023-12-20T07:10:59;22.33;;;3.90;;
24681;SDS011;12802;53.390;-2.328;2023-12-20T07:13:26;22.48;;;3.58;;
24681;SDS011;12802;53.390;-2.328;2023-12-20T07:15:52;25.38;;;3.83;;
24681;SDS011;12802;53.390;-2.328;2023-12-20T07:18:18;24.23;;;3.70;;
24681;SDS011;12802;53.390;-2.328;2023-12-20T07:20:44;27.30;;;3.95;;
24681;SDS011;12802;53.390;-2.328;2023-12-20T07:23:10;24.10;;;3.75;;
24681;SDS011;12802;53.390;-2.328;2023-12-20T07:25:36;19.27;;;3.20;;
24681;SDS011;12802;53.390;-2.328;2023-12-20T07:28:03;17.83;;;3.40;;
24681;SDS011;12802;53.390;-2.328;2023-12-20T07:30:29;22.80;;;3.63;;
24681;SDS011;12802;53.390;-2.328;2023-12-20T07:32:56;20.00;;;2.78;;
24681;SDS011;12802;53.390;-2.328;2023-12-20T07:35:23;16.48;;;3.25;;
24681;SDS011;12802;53.390;-2.328;2023-12-20T07:37:50;21.27;;;4.13;;
24681;SDS011;12802;53.390;-2.328;2023-12-20T07:40:16;18.40;;;3.28;;
24681;SDS011;12802;53.390;-2.328;2023-12-20T07:42:42;19.88;;;3.25;;
24681;SDS011;12802;53.390;-2.328;2023-12-20T07:45:08;20.00;;;3.22;;
24681;SDS011;12802;53.390;-2.328;2023-12-20T07:47:36;18.52;;;3.42;;
24681;SDS011;12802;53.390;-2.328;2023-12-20T07:50:02;18.67;;;3.55;;
24681;SDS011;12802;53.390;-2.328;2023-12-20T07:52:29;14.23;;;3.00;;
24681;SDS011;12802;53.390;-2.328;2023-12-20T07:54:55;21.10;;;3.10;;
24681;SDS011;12802;53.390;-2.328;2023-12-20T07:57:21;21.50;;;3.33;;
24681;SDS011;12802;53.390;-2.328;2023-12-20T07:59:47;20.38;;;3.50;;
24681;SDS011;12802;53.390;-2.328;2023-12-20T08:02:13;16.90;;;3.15;;
24681;SDS011;12802;53.390;-2.328;2023-12-20T08:04:40;18.77;;;3.25;;
24681;SDS011;12802;53.390;-2.328;2023-12-20T08:07:06;18.85;;;4.20;;
24681;SDS011;12802;53.390;-2.328;2023-12-20T08:09:33;23.85;;;3.40;;
24681;SDS011;12802;53.390;-2.328;2023-12-20T08:12:01;17.52;;;3.42;;
24681;SDS011;12802;53.390;-2.328;2023-12-20T08:14:27;23.00;;;3.70;;
24681;SDS011;12802;53.390;-2.328;2023-12-20T08:16:54;19.83;;;3.75;;
24681;SDS011;12802;53.390;-2.328;2023-12-20T08:19:20;25.10;;;3.97;;
24681;SDS011;12802;53.390;-2.328;2023-12-20T08:21:46;20.83;;;3.38;;
24681;SDS011;12802;53.390;-2.328;2023-12-20T08:24:12;18.58;;;3.22;;
24681;SDS011;12802;53.390;-2.328;2023-12-20T08:26:38;22.88;;;3.50;;
24681;SDS011;12802;53.390;-2.328;2023-12-20T08:29:04;19.05;;;3.47;;
24681;SDS011;12802;53.390;-2.328;2023-12-20T08:31:30;16.15;;;3.35;;
24681;SDS011;12802;53.390;-2.328;2023-12-20T08:33:56;18.45;;;3.28;;
24681;SDS011;12802;53.390;-2.328;2023-12-20T08:36:23;15.60;;;3.13;;
24681;SDS011;12802;53.390;-2.328;2023-12-20T08:38:49;22.55;;;3.38;;
24681;SDS011;12802;53.390;-2.328;2023-12-20T08:41:16;23.70;;;3.38;;
24681;SDS011;12802;53.390;-2.328;2023-12-20T08:43:42;21.20;;;3.63;;
24681;SDS011;12802;53.390;-2.328;2023-12-20T08:46:09;17.50;;;3.10;;
24681;SDS011;12802;53.390;-2.328;2023-12-20T08:48:35;22.20;;;4.18;;
24681;SDS011;12802;53.390;-2.328;2023-12-20T08:51:02;23.65;;;4.80;;
24681;SDS011;12802;53.390;-2.328;2023-12-20T08:53:28;26.58;;;4.65;;
24681;SDS011;12802;53.390;-2.328;2023-12-20T08:55:55;27.63;;;4.95;;
24681;SDS011;12802;53.390;-2.328;2023-12-20T08:58:23;32.50;;;4.72;;
24681;SDS011;12802;53.390;-2.328;2023-12-20T09:00:49;26.60;;;4.20;;
24681;SDS011;12802;53.390;-2.328;2023-12-20T09:03:15;27.45;;;4.65;;
24681;SDS011;12802;53.390;-2.328;2023-12-20T09:05:41;33.92;;;5.45;;
24681;SDS011;12802;53.390;-2.328;2023-12-20T09:08:07;27.88;;;4.47;;
24681;SDS011;12802;53.390;-2.328;2023-12-20T09:10:35;22.58;;;3.85;;
24681;SDS011;12802;53.390;-2.328;2023-12-20T09:13:01;26.73;;;4.32;;
24681;SDS011;12802;53.390;-2.328;2023-12-20T09:15:29;29.92;;;4.93;;
24681;SDS011;12802;53.390;-2.328;2023-12-20T09:17:55;26.40;;;3.80;;
24681;SDS011;12802;53.390;-2.328;2023-12-20T09:20:21;27.60;;;4.25;;
24681;SDS011;12802;53.390;-2.328;2023-12-20T09:22:48;23.67;;;3.80;;
24681;SDS011;12802;53.390;-2.328;2023-12-20T09:25:14;28.38;;;4.22;;
24681;SDS011;12802;53.390;-2.328;2023-12-20T09:27:42;19.67;;;4.15;;
24681;SDS011;12802;53.390;-2.328;2023-12-20T09:30:09;26.73;;;3.92;;
24681;SDS011;12802;53.390;-2.328;2023-12-20T09:32:35;17.83;;;3.40;;
24681;SDS011;12802;53.390;-2.328;2023-12-20T09:35:01;22.38;;;3.70;;
24681;SDS011;12802;53.390;-2.328;2023-12-20T09:37:28;16.50;;;2.58;;
24681;SDS011;12802;53.390;-2.328;2023-12-20T09:39:54;15.25;;;2.80;;
24681;SDS011;12802;53.390;-2.328;2023-12-20T09:42:27;19.52;;;2.72;;
24681;SDS011;12802;53.390;-2.328;2023-12-20T09:44:55;12.80;;;2.22;;
24681;SDS011;12802;53.390;-2.328;2023-12-20T09:47:23;12.55;;;2.10;;
24681;SDS011;12802;53.390;-2.328;2023-12-20T09:49:50;14.25;;;1.92;;
24681;SDS011;12802;53.390;-2.328;2023-12-20T09:52:16;16.02;;;2.53;;
24681;SDS011;12802;53.390;-2.328;2023-12-20T09:54:44;15.52;;;2.35;;
24681;SDS011;12802;53.390;-2.328;2023-12-20T09:57:11;14.60;;;2.38;;
24681;SDS011;12802;53.390;-2.328;2023-12-20T09:59:38;18.45;;;2.55;;
24681;SDS011;12802;53.390;-2.328;2023-12-20T10:02:04;13.15;;;2.00;;
24681;SDS011;12802;53.390;-2.328;2023-12-20T10:04:34;11.23;;;2.00;;
24681;SDS011;12802;53.390;-2.328;2023-12-20T10:07:03;12.60;;;2.10;;
24681;SDS011;12802;53.390;-2.328;2023-12-20T10:09:31;19.73;;;2.35;;
24681;SDS011;12802;53.390;-2.328;2023-12-20T10:11:58;14.93;;;2.63;;
24681;SDS011;12802;53.390;-2.328;2023-12-20T10:14:24;14.02;;;2.72;;
24681;SDS011;12802;53.390;-2.328;2023-12-20T10:16:50;16.48;;;2.40;;
24681;SDS011;12802;53.390;-2.328;2023-12-20T10:19:16;18.40;;;2.40;;
24681;SDS011;12802;53.390;-2.328;2023-12-20T10:21:43;21.48;;;3.42;;
24681;SDS011;12802;53.390;-2.328;2023-12-20T10:24:10;14.88;;;2.50;;
24681;SDS011;12802;53.390;-2.328;2023-12-20T10:26:42;16.88;;;3.00;;
24681;SDS011;12802;53.390;-2.328;2023-12-20T10:29:08;14.40;;;2.22;;
24681;SDS011;12802;53.390;-2.328;2023-12-20T10:31:36;12.90;;;2.30;;
24681;SDS011;12802;53.390;-2.328;2023-12-20T10:34:03;15.57;;;2.40;;
24681;SDS011;12802;53.390;-2.328;2023-12-20T10:36:30;16.77;;;2.40;;
24681;SDS011;12802;53.390;-2.328;2023-12-20T10:38:57;15.27;;;2.67;;
24681;SDS011;12802;53.390;-2.328;2023-12-20T10:41:24;22.95;;;3.13;;
24681;SDS011;12802;53.390;-2.328;2023-12-20T10:43:51;14.68;;;2.70;;
24681;SDS011;12802;53.390;-2.328;2023-12-20T10:46:19;19.45;;;3.10;;
24681;SDS011;12802;53.390;-2.328;2023-12-20T10:48:45;20.92;;;3.22;;
24681;SDS011;12802;53.390;-2.328;2023-12-20T10:51:11;19.17;;;3.63;;
24681;SDS011;12802;53.390;-2.328;2023-12-20T10:53:38;17.67;;;3.35;;
24681;SDS011;12802;53.390;-2.328;2023-12-20T10:56:06;22.65;;;4.00;;
24681;SDS011;12802;53.390;-2.328;2023-12-20T10:58:34;20.77;;;4.32;;
24681;SDS011;12802;53.390;-2.328;2023-12-20T11:01:02;23.27;;;4.07;;
24681;SDS011;12802;53.390;-2.328;2023-12-20T11:03:30;22.88;;;4.30;;
24681;SDS011;12802;53.390;-2.328;2023-12-20T11:05:59;25.70;;;4.60;;
24681;SDS011;12802;53.390;-2.328;2023-12-20T11:08:32;22.70;;;4.25;;
24681;SDS011;12802;53.390;-2.328;2023-12-20T11:11:02;29.30;;;4.65;;
24681;SDS011;12802;53.390;-2.328;2023-12-20T11:13:33;19.02;;;4.72;;
24681;SDS011;12802;53.390;-2.328;2023-12-20T11:16:00;21.50;;;4.13;;
24681;SDS011;12802;53.390;-2.328;2023-12-20T11:18:30;23.83;;;4.22;;
24681;SDS011;12802;53.390;-2.328;2023-12-20T11:23:22;21.38;;;3.83;;
24681;SDS011;12802;53.390;-2.328;2023-12-20T11:25:52;22.60;;;3.60;;
24681;SDS011;12802;53.390;-2.328;2023-12-20T11:28:22;19.40;;;4.15;;
24681;SDS011;12802;53.390;-2.328;2023-12-20T11:30:50;19.65;;;3.60;;
24681;SDS011;12802;53.390;-2.328;2023-12-20T11:33:16;16.80;;;3.45;;
24681;SDS011;12802;53.390;-2.328;2023-12-20T11:35:43;16.15;;;3.47;;
24681;SDS011;12802;53.390;-2.328;2023-12-20T11:38:09;24.00;;;3.75;;
24681;SDS011;12802;53.390;-2.328;2023-12-20T11:40:36;21.92;;;3.42;;
24681;SDS011;12802;53.390;-2.328;2023-12-20T11:43:02;17.05;;;3.58;;
24681;SDS011;12802;53.390;-2.328;2023-12-20T11:45:30;20.08;;;3.35;;
24681;SDS011;12802;53.390;-2.328;2023-12-20T11:47:57;12.35;;;3.67;;
24681;SDS011;12802;53.390;-2.328;2023-12-20T11:50:23;19.98;;;3.20;;
24681;SDS011;12802;53.390;-2.328;2023-12-20T11:52:50;16.80;;;3.78;;
24681;SDS011;12802;53.390;-2.328;2023-12-20T11:55:17;18.95;;;3.75;;
24681;SDS011;12802;53.390;-2.328;2023-12-20T11:57:43;19.67;;;3.67;;
24681;SDS011;12802;53.390;-2.328;2023-12-20T12:00:13;18.63;;;3.88;;
24681;SDS011;12802;53.390;-2.328;2023-12-20T12:02:39;14.85;;;3.38;;
24681;SDS011;12802;53.390;-2.328;2023-12-20T12:05:06;18.85;;;3.50;;
24681;SDS011;12802;53.390;-2.328;2023-12-20T12:07:33;17.27;;;3.72;;
24681;SDS011;12802;53.390;-2.328;2023-12-20T12:09:59;16.63;;;3.90;;
24681;SDS011;12802;53.390;-2.328;2023-12-20T12:12:26;21.83;;;3.72;;
24681;SDS011;12802;53.390;-2.328;2023-12-20T12:14:53;23.65;;;4.72;;
24681;SDS011;12802;53.390;-2.328;2023-12-20T12:17:19;17.50;;;3.63;;
24681;SDS011;12802;53.390;-2.328;2023-12-20T12:19:45;17.27;;;3.97;;
24681;SDS011;12802;53.390;-2.328;2023-12-20T12:22:12;18.23;;;4.00;;
24681;SDS011;12802;53.390;-2.328;2023-12-20T12:24:40;16.60;;;3.78;;
24681;SDS011;12802;53.390;-2.328;2023-12-20T12:27:07;25.92;;;5.20;;
24681;SDS011;12802;53.390;-2.328;2023-12-20T12:29:36;28.23;;;5.43;;
24681;SDS011;12802;53.390;-2.328;2023-12-20T12:34:29;32.25;;;4.78;;
24681;SDS011;12802;53.390;-2.328;2023-12-20T12:36:56;23.95;;;4.38;;
24681;SDS011;12802;53.390;-2.328;2023-12-20T12:39:25;22.95;;;4.97;;
24681;SDS011;12802;53.390;-2.328;2023-12-20T12:41:51;21.73;;;4.18;;
24681;SDS011;12802;53.390;-2.328;2023-12-20T12:44:18;22.67;;;4.50;;
24681;SDS011;12802;53.390;-2.328;2023-12-20T12:46:45;21.00;;;4.75;;
24681;SDS011;12802;53.390;-2.328;2023-12-20T12:49:11;24.15;;;4.80;;
24681;SDS011;12802;53.390;-2.328;2023-12-20T12:51:37;18.08;;;4.05;;
24681;SDS011;12802;53.390;-2.328;2023-12-20T12:54:03;25.15;;;4.57;;
24681;SDS011;12802;53.390;-2.328;2023-12-20T12:56:30;26.65;;;4.47;;
24681;SDS011;12802;53.390;-2.328;2023-12-20T12:58:56;22.17;;;4.47;;
24681;SDS011;12802;53.390;-2.328;2023-12-20T13:01:22;23.20;;;5.18;;
24681;SDS011;12802;53.390;-2.328;2023-12-20T13:03:48;21.13;;;4.63;;
24681;SDS011;12802;53.390;-2.328;2023-12-20T13:06:14;22.48;;;4.30;;
24681;SDS011;12802;53.390;-2.328;2023-12-20T13:08:40;22.15;;;4.38;;
24681;SDS011;12802;53.390;-2.328;2023-12-20T13:11:07;25.48;;;4.90;;
24681;SDS011;12802;53.390;-2.328;2023-12-20T13:13:33;29.60;;;5.30;;
24681;SDS011;12802;53.390;-2.328;2023-12-20T13:15:59;24.15;;;4.38;;
24681;SDS011;12802;53.390;-2.328;2023-12-20T13:18:26;21.83;;;4.07;;
24681;SDS011;12802;53.390;-2.328;2023-12-20T13:20:52;20.90;;;4.20;;
24681;SDS011;12802;53.390;-2.328;2023-12-20T13:23:18;18.70;;;3.92;;
24681;SDS011;12802;53.390;-2.328;2023-12-20T13:25:44;21.60;;;4.60;;
24681;SDS011;12802;53.390;-2.328;2023-12-20T13:28:13;24.30;;;4.18;;
24681;SDS011;12802;53.390;-2.328;2023-12-20T13:30:39;16.35;;;3.60;;
24681;SDS011;12802;53.390;-2.328;2023-12-20T13:33:06;20.83;;;3.95;;
24681;SDS011;12802;53.390;-2.328;2023-12-20T13:35:33;18.25;;;3.60;;
24681;SDS011;12802;53.390;-2.328;2023-12-20T13:38:00;21.27;;;3.70;;
24681;SDS011;12802;53.390;-2.328;2023-12-20T13:40:26;19.48;;;4.15;;
24681;SDS011;12802;53.390;-2.328;2023-12-20T13:42:53;17.48;;;4.18;;
24681;SDS011;12802;53.390;-2.328;2023-12-20T13:45:20;17.67;;;4.13;;
24681;SDS011;12802;53.390;-2.328;2023-12-20T13:47:46;26.58;;;4.18;;
24681;SDS011;12802;53.390;-2.328;2023-12-20T13:50:12;17.90;;;3.63;;
24681;SDS011;12802;53.390;-2.328;2023-12-20T13:52:38;14.98;;;3.67;;
24681;SDS011;12802;53.390;-2.328;2023-12-20T13:55:05;19.20;;;3.22;;
24681;SDS011;12802;53.390;-2.328;2023-12-20T13:57:33;19.27;;;3.97;;
24681;SDS011;12802;53.390;-2.328;2023-12-20T14:00:02;17.13;;;3.40;;
24681;SDS011;12802;53.390;-2.328;2023-12-20T14:02:32;13.15;;;3.08;;
24681;SDS011;12802;53.390;-2.328;2023-12-20T14:04:58;13.45;;;3.20;;
24681;SDS011;12802;53.390;-2.328;2023-12-20T14:07:24;15.75;;;3.40;;
24681;SDS011;12802;53.390;-2.328;2023-12-20T14:09:51;17.67;;;3.00;;
24681;SDS011;12802;53.390;-2.328;2023-12-20T14:12:17;20.75;;;3.63;;
24681;SDS011;12802;53.390;-2.328;2023-12-20T14:14:43;22.42;;;3.78;;
24681;SDS011;12802;53.390;-2.328;2023-12-20T14:17:10;19.50;;;3.30;;
24681;SDS011;12802;53.390;-2.328;2023-12-20T14:19:36;18.17;;;4.43;;
24681;SDS011;12802;53.390;-2.328;2023-12-20T14:22:02;23.70;;;3.90;;